createdAt,value
2018-11-11T00:01:18.975Z,3.40
2018-11-11T00:03:47.697Z,3.90
2018-11-11T00:06:16.421Z,4.80
2018-11-11T00:08:45.122Z,4.23
2018-11-11T00:11:13.895Z,4.10
2018-11-11T00:13:42.529Z,3.17
2018-11-11T00:16:11.323Z,3.27
2018-11-11T00:18:40.023Z,3.30
2018-11-11T00:21:08.730Z,2.90
2018-11-11T00:23:37.460Z,2.60
2018-11-11T00:26:06.234Z,2.80
2018-11-11T00:28:34.909Z,2.80
2018-11-11T00:31:03.655Z,2.60
2018-11-11T00:33:32.340Z,2.40
2018-11-11T00:36:01.075Z,2.30
2018-11-11T00:38:29.746Z,2.10
2018-11-11T00:40:58.497Z,2.20
2018-11-11T00:43:27.196Z,2.20
2018-11-11T00:45:55.973Z,2.10
2018-11-11T00:48:24.730Z,2.00
2018-11-11T00:50:53.377Z,2.00
2018-11-11T00:53:22.049Z,1.70
2018-11-11T00:55:52.309Z,1.70
2018-11-11T00:58:21.010Z,1.60
2018-11-11T01:00:49.649Z,1.70
2018-11-11T01:03:18.324Z,2.00
2018-11-11T01:05:47.077Z,2.33
2018-11-11T01:08:15.960Z,2.13
2018-11-11T01:10:44.610Z,2.00
2018-11-11T01:13:13.288Z,2.50
2018-11-11T01:15:41.993Z,2.43
2018-11-11T01:18:10.704Z,2.07
2018-11-11T01:20:39.356Z,1.70
2018-11-11T01:23:08.060Z,2.50
2018-11-11T01:25:36.954Z,2.23
2018-11-11T01:28:05.998Z,2.00
2018-11-11T01:30:34.803Z,1.83
2018-11-11T01:33:03.564Z,1.90
2018-11-11T01:35:32.231Z,1.80
2018-11-11T01:38:00.877Z,1.73
2018-11-11T01:40:29.701Z,1.37
2018-11-11T01:42:58.365Z,1.60
2018-11-11T01:45:27.080Z,1.87
2018-11-11T01:47:55.923Z,3.83
2018-11-11T01:50:24.573Z,1.70
2018-11-11T01:52:53.397Z,1.73
2018-11-11T01:55:22.034Z,2.67
2018-11-11T01:57:50.939Z,2.43
2018-11-11T02:00:19.916Z,5.97
2018-11-11T02:02:49.289Z,6.17
2018-11-11T02:05:18.028Z,5.47
2018-11-11T02:07:47.398Z,3.77
2018-11-11T02:10:16.353Z,2.30
2018-11-11T02:12:46.222Z,1.77
2018-11-11T02:15:15.832Z,1.67
2018-11-11T02:17:44.496Z,1.57
2018-11-11T02:20:16.545Z,2.53
2018-11-11T02:22:46.558Z,1.70
2018-11-11T02:25:15.348Z,1.83
2018-11-11T02:27:44.457Z,1.73
2018-11-11T02:30:18.035Z,1.70
2018-11-11T02:32:46.821Z,2.00
2018-11-11T02:35:15.520Z,2.47
2018-11-11T02:37:44.678Z,2.40
2018-11-11T02:40:15.299Z,2.23
2018-11-11T02:42:44.271Z,2.03
2018-11-11T02:45:14.203Z,2.40
2018-11-11T02:47:42.864Z,2.27
2018-11-11T02:50:13.672Z,2.10
2018-11-11T02:52:43.059Z,2.37
2018-11-11T02:55:12.370Z,2.10
2018-11-11T02:57:41.644Z,2.40
2018-11-11T03:00:13.005Z,2.33
2018-11-11T03:02:43.202Z,1.93
2018-11-11T03:05:13.180Z,2.07
2018-11-11T03:07:41.936Z,2.50
2018-11-11T03:10:11.936Z,2.17
2018-11-11T03:12:41.103Z,2.30
2018-11-11T03:15:11.026Z,2.67
2018-11-11T03:17:39.744Z,2.47
2018-11-11T03:20:09.345Z,2.87
2018-11-11T03:22:38.105Z,3.00
2018-11-11T03:25:08.110Z,2.87
2018-11-11T03:27:36.809Z,2.43
2018-11-11T03:30:08.909Z,2.30
2018-11-11T03:32:37.941Z,2.60
2018-11-11T03:35:08.531Z,2.57
2018-11-11T03:37:37.304Z,2.97
2018-11-11T03:40:08.715Z,2.53
2018-11-11T03:42:37.390Z,2.43
2018-11-11T03:45:07.132Z,2.60
2018-11-11T03:47:35.897Z,2.67
2018-11-11T03:50:05.412Z,3.10
2018-11-11T03:52:34.175Z,2.50
2018-11-11T03:55:02.849Z,3.23
2018-11-11T03:57:31.478Z,2.90
2018-11-11T04:00:00.138Z,3.30
2018-11-11T04:02:28.838Z,3.30
2018-11-11T04:04:57.583Z,3.50
2018-11-11T04:07:26.680Z,3.00
2018-11-11T04:09:55.338Z,3.20
2018-11-11T04:12:23.961Z,3.27
2018-11-11T04:14:52.627Z,2.97
2018-11-11T04:17:21.318Z,3.40
2018-11-11T04:19:50.220Z,3.30
2018-11-11T04:22:20.473Z,3.50
2018-11-11T04:24:50.636Z,3.30
2018-11-11T04:27:20.002Z,3.10
2018-11-11T04:29:48.878Z,3.60
2018-11-11T04:32:17.493Z,3.50
2018-11-11T04:34:46.221Z,3.20
2018-11-11T04:37:14.872Z,3.40
2018-11-11T04:39:43.480Z,3.37
2018-11-11T04:42:12.160Z,3.10
2018-11-11T04:44:40.817Z,3.03
2018-11-11T04:47:09.462Z,3.37
2018-11-11T04:49:38.103Z,3.30
2018-11-11T04:52:07.038Z,3.23
2018-11-11T04:54:36.599Z,3.50
2018-11-11T04:57:05.290Z,2.60
2018-11-11T04:59:33.965Z,2.50
2018-11-11T05:02:03.104Z,2.93
2018-11-11T05:04:31.875Z,2.50
2018-11-11T05:07:00.620Z,3.00
2018-11-11T05:09:29.239Z,2.73
2018-11-11T05:11:57.879Z,2.67
2018-11-11T05:14:26.477Z,3.07
2018-11-11T05:16:55.135Z,2.83
2018-11-11T05:19:24.171Z,2.40
2018-11-11T05:21:52.834Z,2.10
2018-11-11T05:24:21.468Z,1.80
2018-11-11T05:26:51.108Z,2.17
2018-11-11T05:29:19.791Z,2.50
2018-11-11T05:31:48.449Z,2.40
2018-11-11T05:34:17.134Z,2.07
2018-11-11T05:36:46.046Z,2.00
2018-11-11T05:39:14.799Z,1.97
2018-11-11T05:41:43.573Z,2.10
2018-11-11T05:44:12.350Z,2.40
2018-11-11T05:46:40.978Z,1.83
2018-11-11T05:49:09.602Z,2.13
2018-11-11T05:51:38.414Z,2.03
2018-11-11T05:54:07.349Z,2.10
2018-11-11T05:56:36.103Z,1.90
2018-11-11T05:59:05.240Z,1.57
2018-11-11T06:01:34.022Z,1.80
2018-11-11T06:04:03.202Z,1.40
2018-11-11T06:06:31.950Z,1.83
2018-11-11T06:09:00.711Z,2.20
2018-11-11T06:11:29.418Z,1.90
2018-11-11T06:13:58.332Z,1.93
2018-11-11T06:16:27.281Z,1.80
2018-11-11T06:18:55.998Z,1.63
2018-11-11T06:21:25.120Z,2.10
2018-11-11T06:23:54.263Z,3.13
2018-11-11T06:26:23.225Z,1.53
2018-11-11T06:28:52.006Z,2.23
2018-11-11T06:31:20.766Z,1.50
2018-11-11T06:33:49.478Z,2.10
2018-11-11T06:36:18.222Z,2.27
2018-11-11T06:38:46.952Z,2.47
2018-11-11T06:41:15.602Z,2.37
2018-11-11T06:43:44.298Z,2.17
2018-11-11T06:46:12.943Z,2.20
2018-11-11T06:48:41.631Z,2.10
2018-11-11T06:51:10.322Z,2.53
2018-11-11T06:53:39.272Z,2.30
2018-11-11T06:56:08.043Z,2.70
2018-11-11T06:58:36.751Z,2.30
2018-11-11T07:01:06.255Z,2.50
2018-11-11T07:03:52.057Z,1.80
2018-11-11T07:06:21.393Z,1.43
2018-11-11T07:08:50.215Z,1.60
2018-11-11T07:11:20.260Z,1.67
2018-11-11T07:13:50.125Z,1.53
2018-11-11T07:16:19.071Z,2.00
2018-11-11T07:18:50.035Z,2.50
2018-11-11T07:21:20.349Z,2.60
2018-11-11T07:23:49.500Z,2.63
2018-11-11T07:26:18.731Z,2.77
2018-11-11T07:28:49.216Z,3.77
2018-11-11T07:31:20.422Z,4.83
2018-11-11T07:33:49.573Z,8.80
2018-11-11T07:36:18.217Z,2.20
2018-11-11T07:38:48.602Z,2.33
2018-11-11T07:41:17.650Z,2.67
2018-11-11T07:43:47.375Z,2.90
2018-11-11T07:46:17.377Z,2.50
2018-11-11T07:48:46.100Z,2.67
2018-11-11T07:51:17.515Z,2.10
2018-11-11T07:53:46.523Z,2.70
2018-11-11T07:56:15.350Z,2.23
2018-11-11T07:58:44.037Z,2.60
2018-11-11T08:01:12.986Z,2.23
2018-11-11T08:03:41.640Z,3.63
2018-11-11T08:06:10.318Z,3.83
2018-11-11T08:08:39.118Z,3.63
2018-11-11T08:11:19.395Z,2.40
2018-11-11T08:13:47.860Z,1.77
2018-11-11T08:16:16.539Z,2.70
2018-11-11T08:18:45.138Z,1.90
2018-11-11T08:21:13.775Z,2.10
2018-11-11T08:23:42.566Z,3.60
2018-11-11T08:26:11.271Z,3.90
2018-11-11T08:28:39.886Z,4.10
2018-11-11T08:31:08.661Z,3.50
2018-11-11T08:33:37.330Z,2.60
2018-11-11T08:36:06.175Z,2.10
2018-11-11T08:38:34.939Z,1.90
2018-11-11T08:41:07.788Z,1.73
2018-11-11T08:43:40.656Z,1.60
2018-11-11T08:46:09.674Z,1.97
2018-11-11T08:48:39.134Z,1.93
2018-11-11T08:51:07.777Z,1.93
2018-11-11T08:53:36.609Z,1.80
2018-11-11T08:56:05.797Z,1.97
2018-11-11T08:58:34.647Z,1.80
2018-11-11T09:01:03.484Z,2.00
2018-11-11T09:03:32.267Z,2.10
2018-11-11T09:06:01.010Z,1.90
2018-11-11T09:08:29.803Z,1.70
2018-11-11T09:11:08.980Z,1.70
2018-11-11T09:13:37.611Z,1.50
2018-11-11T09:16:06.296Z,1.60
2018-11-11T09:18:35.074Z,1.10
2018-11-11T09:21:04.145Z,1.20
2018-11-11T09:23:33.291Z,1.30
2018-11-11T09:26:02.214Z,1.10
2018-11-11T09:28:31.122Z,0.90
2018-11-11T09:31:00.164Z,0.67
2018-11-11T09:33:28.911Z,1.10
2018-11-11T09:35:58.361Z,0.70
2018-11-11T09:38:27.995Z,0.73
2018-11-11T09:40:56.714Z,0.80
2018-11-11T09:43:27.538Z,0.67
2018-11-11T09:45:58.393Z,1.10
2018-11-11T09:48:28.225Z,0.80
2018-11-11T09:50:57.808Z,0.70
2018-11-11T09:53:26.928Z,1.40
2018-11-11T09:55:55.699Z,0.80
2018-11-11T09:58:24.490Z,0.47
2018-11-11T10:00:53.241Z,0.30
2018-11-11T10:03:30.585Z,0.50
2018-11-11T10:07:14.986Z,0.30
2018-11-11T10:09:51.800Z,0.40
2018-11-11T10:12:27.347Z,0.40
2018-11-11T10:15:05.476Z,0.30
2018-11-11T10:19:43.892Z,0.40
2018-11-11T10:22:18.555Z,0.30
2018-11-11T10:25:22.356Z,0.43
2018-11-11T10:28:00.193Z,0.50
2018-11-11T10:30:34.745Z,0.40
2018-11-11T10:33:21.109Z,0.40
2018-11-11T10:35:54.663Z,0.50
2018-11-11T10:38:27.757Z,0.50
2018-11-11T10:41:03.310Z,0.40
2018-11-11T10:43:38.255Z,0.60
2018-11-11T10:46:24.506Z,0.60
2018-11-11T10:49:00.336Z,0.57
2018-11-11T10:51:29.177Z,0.80
2018-11-11T10:53:58.099Z,0.80
2018-11-11T10:56:27.178Z,0.90
2018-11-11T10:58:56.177Z,0.70
2018-11-11T11:01:26.812Z,0.70
2018-11-11T11:03:55.871Z,0.67
2018-11-11T11:06:29.848Z,0.73
2018-11-11T11:09:03.725Z,0.80
2018-11-11T11:11:32.690Z,0.73
2018-11-11T11:14:01.530Z,0.93
2018-11-11T11:16:30.224Z,0.90
2018-11-11T11:18:58.866Z,0.60
2018-11-11T11:21:27.959Z,0.97
2018-11-11T11:23:57.127Z,1.00
2018-11-11T11:26:26.272Z,0.70
2018-11-11T11:28:55.011Z,0.73
2018-11-11T11:31:23.853Z,0.73
2018-11-11T11:33:52.518Z,1.00
2018-11-11T11:36:21.169Z,0.77
2018-11-11T11:38:50.333Z,0.80
2018-11-11T11:41:19.691Z,0.97
2018-11-11T11:43:48.381Z,0.70
2018-11-11T11:46:18.188Z,0.90
2018-11-11T11:48:47.954Z,0.90
2018-11-11T11:51:17.962Z,0.90
2018-11-11T11:53:46.676Z,0.90
2018-11-11T11:56:15.667Z,0.77
2018-11-11T11:58:46.639Z,0.60
2018-11-11T12:01:15.317Z,0.70
2018-11-11T12:03:44.041Z,0.70
2018-11-11T12:06:13.271Z,0.80
2018-11-11T12:08:42.511Z,0.60
2018-11-11T12:11:12.623Z,0.67
2018-11-11T12:13:41.290Z,0.60
2018-11-11T12:16:09.963Z,0.70
2018-11-11T12:18:38.652Z,0.73
2018-11-11T12:21:07.380Z,3.13
2018-11-11T12:23:36.336Z,2.17
2018-11-11T12:26:05.153Z,0.70
2018-11-11T12:28:33.888Z,0.50
2018-11-11T12:31:03.091Z,0.80
2018-11-11T12:33:32.006Z,0.80
2018-11-11T12:36:01.298Z,0.83
2018-11-11T12:38:31.591Z,0.70
2018-11-11T12:41:00.774Z,0.90
2018-11-11T12:43:36.032Z,0.57
2018-11-11T12:46:04.750Z,0.70
2018-11-11T12:48:33.438Z,0.70
2018-11-11T12:51:02.533Z,0.70
2018-11-11T12:53:31.439Z,0.80
2018-11-11T12:56:00.372Z,0.83
2018-11-11T12:58:29.150Z,0.77
2018-11-11T13:00:58.967Z,0.70
2018-11-11T13:03:27.815Z,0.90
2018-11-11T13:05:56.495Z,1.07
2018-11-11T13:08:25.154Z,1.50
2018-11-11T13:10:53.716Z,6.70
2018-11-11T13:13:22.378Z,1.10
2018-11-11T13:15:51.350Z,1.03
2018-11-11T13:18:20.077Z,1.10
2018-11-11T13:20:48.959Z,1.23
2018-11-11T13:23:18.244Z,0.70
2018-11-11T13:25:47.275Z,1.47
2018-11-11T13:28:16.842Z,0.90
2018-11-11T13:30:45.502Z,0.90
2018-11-11T13:33:15.157Z,0.80
2018-11-11T13:35:44.305Z,0.67
2018-11-11T13:38:13.461Z,0.80
2018-11-11T13:40:42.935Z,0.60
2018-11-11T13:43:11.842Z,0.70
2018-11-11T13:45:40.614Z,0.77
2018-11-11T13:48:09.344Z,0.77
2018-11-11T13:50:38.187Z,0.63
2018-11-11T13:53:06.983Z,1.03
2018-11-11T13:55:37.902Z,0.80
2018-11-11T13:58:08.949Z,0.83
2018-11-11T14:00:41.519Z,0.80
2018-11-11T14:03:14.198Z,0.67
2018-11-11T14:05:49.047Z,0.70
2018-11-11T14:08:32.124Z,0.90
2018-11-11T14:11:05.621Z,0.80
2018-11-11T14:13:39.316Z,0.80
2018-11-11T14:16:14.008Z,0.70
2018-11-11T14:18:54.896Z,0.70
2018-11-11T14:21:26.563Z,1.00
2018-11-11T14:23:55.406Z,0.80
2018-11-11T14:26:24.391Z,0.50
2018-11-11T14:28:53.233Z,0.70
2018-11-11T14:31:22.565Z,0.77
2018-11-11T14:33:51.339Z,0.70
2018-11-11T14:36:20.060Z,0.60
2018-11-11T14:38:48.752Z,0.70
2018-11-11T14:41:17.535Z,0.77
2018-11-11T14:43:46.595Z,0.80
2018-11-11T14:46:15.339Z,0.70
2018-11-11T14:48:44.030Z,0.60
2018-11-11T14:51:12.693Z,0.70
2018-11-11T14:53:41.611Z,0.80
2018-11-11T14:56:10.369Z,0.60
2018-11-11T14:58:39.025Z,0.77
2018-11-11T15:01:08.226Z,0.60
2018-11-11T15:03:37.587Z,0.60
2018-11-11T15:06:07.333Z,0.70
2018-11-11T15:08:36.027Z,1.00
2018-11-11T15:11:08.819Z,0.70
2018-11-11T15:13:38.007Z,1.10
2018-11-11T15:16:17.846Z,0.90
2018-11-11T15:18:46.564Z,1.20
2018-11-11T15:21:16.021Z,0.93
2018-11-11T15:23:45.352Z,0.97
2018-11-11T15:26:14.032Z,0.50
2018-11-11T15:28:48.668Z,0.90
2018-11-11T15:31:17.453Z,1.00
2018-11-11T15:33:47.180Z,1.10
2018-11-11T15:36:15.970Z,1.63
2018-11-11T15:38:44.643Z,2.00
2018-11-11T15:41:13.604Z,1.70
2018-11-11T15:43:42.344Z,1.70
2018-11-11T15:46:11.031Z,1.30
2018-11-11T15:48:39.888Z,0.90
2018-11-11T15:51:08.565Z,1.10
2018-11-11T15:53:37.490Z,1.40
2018-11-11T15:56:21.325Z,1.07
2018-11-11T15:58:50.974Z,1.00
2018-11-11T16:01:19.978Z,2.10
2018-11-11T16:03:49.593Z,1.00
2018-11-11T16:06:26.350Z,1.00
2018-11-11T16:09:08.833Z,1.20
2018-11-11T16:11:48.161Z,1.40
2018-11-11T16:14:19.583Z,1.40
2018-11-11T16:16:50.206Z,1.80
2018-11-11T16:19:31.136Z,1.87
2018-11-11T16:22:10.821Z,2.00
2018-11-11T16:24:47.652Z,1.70
2018-11-11T16:27:19.264Z,1.70
2018-11-11T16:29:49.688Z,1.60
2018-11-11T16:32:21.963Z,1.43
2018-11-11T16:34:50.644Z,2.20
2018-11-11T16:37:22.623Z,2.10
2018-11-11T16:39:53.887Z,2.70
2018-11-11T16:42:23.077Z,2.17
2018-11-11T16:44:53.108Z,3.10
2018-11-11T16:47:23.093Z,1.60
2018-11-11T16:49:51.847Z,1.37
2018-11-11T16:52:21.463Z,1.30
2018-11-11T16:54:51.438Z,1.27
2018-11-11T16:57:32.621Z,1.10
2018-11-11T17:00:01.563Z,1.40
2018-11-11T17:02:30.267Z,1.60
2018-11-11T17:04:58.944Z,11.07
2018-11-11T17:07:27.586Z,3.20
2018-11-11T17:09:56.521Z,2.50
2018-11-11T17:12:31.017Z,1.60
2018-11-11T17:14:59.881Z,1.60
2018-11-11T17:17:28.519Z,1.80
2018-11-11T17:19:57.570Z,1.30
2018-11-11T17:22:26.548Z,1.20
2018-11-11T17:24:55.297Z,1.37
2018-11-11T17:27:24.457Z,1.40
2018-11-11T17:29:53.185Z,1.50
2018-11-11T17:32:21.875Z,1.33
2018-11-11T17:34:50.516Z,1.03
2018-11-11T17:37:19.391Z,1.20
2018-11-11T17:39:48.369Z,1.37
2018-11-11T17:42:17.493Z,1.23
2018-11-11T17:44:46.411Z,1.10
2018-11-11T17:47:15.252Z,1.40
2018-11-11T17:49:45.568Z,1.40
2018-11-11T17:52:17.322Z,1.50
2018-11-11T17:54:46.282Z,1.73
2018-11-11T17:57:14.968Z,1.33
2018-11-11T17:59:43.689Z,1.10
2018-11-11T18:02:13.431Z,1.60
2018-11-11T18:04:42.103Z,1.33
2018-11-11T18:07:10.829Z,1.70
2018-11-11T18:09:39.570Z,1.33
2018-11-11T18:12:08.485Z,1.27
2018-11-11T18:14:37.314Z,1.33
2018-11-11T18:17:06.469Z,1.60
2018-11-11T18:19:35.063Z,1.40
2018-11-11T18:22:03.796Z,1.60
2018-11-11T18:24:32.460Z,1.20
2018-11-11T18:27:01.269Z,1.57
2018-11-11T18:29:29.929Z,1.97
2018-11-11T18:31:58.601Z,1.30
2018-11-11T18:34:27.353Z,1.30
2018-11-11T18:36:56.229Z,1.20
2018-11-11T18:39:25.205Z,1.33
2018-11-11T18:41:54.448Z,1.20
2018-11-11T18:44:23.229Z,1.30
2018-11-11T18:46:51.882Z,1.10
2018-11-11T18:49:20.495Z,1.40
2018-11-11T18:51:49.429Z,1.33
2018-11-11T18:54:18.107Z,1.40
2018-11-11T18:56:46.762Z,1.40
2018-11-11T18:59:15.365Z,1.50
2018-11-11T19:01:44.769Z,1.40
2018-11-11T19:04:13.401Z,1.33
2018-11-11T19:06:42.112Z,1.37
2018-11-11T19:09:13.147Z,1.43
2018-11-11T19:11:42.943Z,1.57
2018-11-11T19:14:11.588Z,1.30
2018-11-11T19:16:40.222Z,1.20
2018-11-11T19:19:09.049Z,1.30
2018-11-11T19:21:37.739Z,1.40
2018-11-11T19:24:06.419Z,1.43
2018-11-11T19:26:35.239Z,1.60
2018-11-11T19:29:04.089Z,1.70
2018-11-11T19:31:33.467Z,1.40
2018-11-11T19:34:02.269Z,1.97
2018-11-11T19:37:56.232Z,2.10
2018-11-11T19:40:26.127Z,1.60
2018-11-11T19:42:56.261Z,1.63
2018-11-11T19:45:26.119Z,1.53
2018-11-11T19:47:54.836Z,1.57
2018-11-11T19:50:24.467Z,2.00
2018-11-11T19:52:54.318Z,1.50
2018-11-11T19:55:23.415Z,1.80
2018-11-11T19:57:52.291Z,1.30
2018-11-11T20:00:24.410Z,1.50
2018-11-11T20:02:53.721Z,2.30
2018-11-11T20:05:22.723Z,1.67
2018-11-11T20:07:52.894Z,1.57
2018-11-11T20:10:22.399Z,1.37
2018-11-11T20:12:51.230Z,1.47
2018-11-11T20:15:21.300Z,1.70
2018-11-11T20:17:50.479Z,1.60
2018-11-11T20:20:20.635Z,1.77
2018-11-11T20:22:49.684Z,1.40
2018-11-11T20:25:19.174Z,1.40
2018-11-11T20:27:48.255Z,1.60
2018-11-11T20:30:20.942Z,1.40
2018-11-11T20:32:49.909Z,1.30
2018-11-11T20:35:21.067Z,1.40
2018-11-11T20:37:50.658Z,1.63
2018-11-11T20:40:21.042Z,1.40
2018-11-11T20:42:50.603Z,1.30
2018-11-11T20:45:20.648Z,1.10
2018-11-11T20:47:50.050Z,1.50
2018-11-11T20:50:20.866Z,1.50
2018-11-11T20:52:51.225Z,1.57
2018-11-11T20:55:20.852Z,1.30
2018-11-11T20:57:49.771Z,1.30
2018-11-11T21:00:20.703Z,1.40
2018-11-11T21:02:49.643Z,1.47
2018-11-11T21:05:20.128Z,1.30
2018-11-11T21:07:49.094Z,1.53
2018-11-11T21:10:20.191Z,1.40
2018-11-11T21:12:49.548Z,1.50
2018-11-11T21:15:19.796Z,1.53
2018-11-11T21:17:48.590Z,1.60
2018-11-11T21:20:19.741Z,1.40
2018-11-11T21:22:48.736Z,1.30
2018-11-11T21:25:17.422Z,1.40
2018-11-11T21:27:46.934Z,1.50
2018-11-11T21:30:20.384Z,1.30
2018-11-11T21:32:49.315Z,1.27
2018-11-11T21:35:18.043Z,1.33
2018-11-11T21:37:46.864Z,1.30
2018-11-11T21:40:17.466Z,1.13
2018-11-11T21:42:47.048Z,1.10
2018-11-11T21:45:16.982Z,1.13
2018-11-11T21:47:45.950Z,1.40
2018-11-11T21:50:15.878Z,1.17
2018-11-11T21:52:46.808Z,1.30
2018-11-11T21:55:20.581Z,2.03
2018-11-11T21:57:49.743Z,2.03
2018-11-11T22:00:18.521Z,1.60
2018-11-11T22:02:47.317Z,1.30
2018-11-11T22:05:15.966Z,1.10
2018-11-11T22:07:45.244Z,1.20
2018-11-11T22:10:14.936Z,1.00
2018-11-11T22:12:44.556Z,1.10
2018-11-11T22:15:13.630Z,1.20
2018-11-11T22:17:43.061Z,1.07
2018-11-11T22:20:12.247Z,1.10
2018-11-11T22:22:41.552Z,1.13
2018-11-11T22:25:10.568Z,1.10
2018-11-11T22:27:39.373Z,1.20
2018-11-11T22:30:10.530Z,1.13
2018-11-11T22:32:39.829Z,1.10
2018-11-11T22:35:12.304Z,1.00
2018-11-11T22:37:41.046Z,1.00
2018-11-11T22:40:12.524Z,1.00
2018-11-11T22:42:41.387Z,0.80
2018-11-11T22:45:12.964Z,0.90
2018-11-11T22:47:41.701Z,0.83
2018-11-11T22:50:12.723Z,1.10
2018-11-11T22:52:41.547Z,1.20
2018-11-11T22:55:11.204Z,1.00
2018-11-11T22:57:40.302Z,0.90
2018-11-11T23:00:18.822Z,1.10
2018-11-11T23:02:47.517Z,0.97
2018-11-11T23:05:18.604Z,1.20
2018-11-11T23:07:49.078Z,0.97
2018-11-11T23:10:18.560Z,1.00
2018-11-11T23:12:49.729Z,0.97
2018-11-11T23:15:19.725Z,1.07
2018-11-11T23:17:48.458Z,0.90
2018-11-11T23:20:19.041Z,1.00
2018-11-11T23:22:47.740Z,1.00
2018-11-11T23:25:17.226Z,0.90
2018-11-11T23:27:45.928Z,0.90
2018-11-11T23:30:19.108Z,1.20
2018-11-11T23:32:48.453Z,1.20
2018-11-11T23:35:17.177Z,1.10
2018-11-11T23:37:46.067Z,1.00
2018-11-11T23:40:16.447Z,1.00
2018-11-11T23:42:46.203Z,1.00
2018-11-11T23:45:15.279Z,0.93
2018-11-11T23:47:43.914Z,0.90
2018-11-11T23:50:16.510Z,0.93
2018-11-11T23:52:45.974Z,0.90
2018-11-11T23:55:16.222Z,1.10
2018-11-11T23:57:44.892Z,1.00
